createdAt,value
2019-04-05T00:00:07.116Z,54.40
2019-04-05T00:02:36.292Z,54.10
2019-04-05T00:05:07.245Z,54.30
2019-04-05T00:07:36.399Z,54.80
2019-04-05T00:10:07.396Z,54.10
2019-04-05T00:12:36.565Z,54.50
2019-04-05T00:15:15.122Z,54.20
2019-04-05T00:17:38.256Z,54.30
2019-04-05T00:20:08.571Z,53.80
2019-04-05T00:22:37.740Z,54.30
2019-04-05T00:25:07.459Z,54.20
2019-04-05T00:27:36.631Z,54.40
2019-04-05T00:30:07.932Z,54.30
2019-04-05T00:32:37.096Z,54.40
2019-04-05T00:35:07.676Z,54.00
2019-04-05T00:37:36.859Z,54.20
2019-04-05T00:40:10.500Z,54.30
2019-04-05T00:42:39.636Z,54.30
2019-04-05T00:45:09.079Z,53.50
2019-04-05T00:47:38.220Z,53.80
2019-04-05T00:50:08.433Z,53.80
2019-04-05T00:52:37.601Z,54.00
2019-04-05T00:55:07.498Z,53.90
2019-04-05T00:57:36.684Z,53.80
2019-04-05T01:00:07.156Z,53.80
2019-04-05T01:02:36.301Z,54.20
2019-04-05T01:05:06.750Z,53.80
2019-04-05T01:07:35.888Z,53.70
2019-04-05T01:10:06.469Z,54.00
2019-04-05T01:12:35.651Z,53.90
2019-04-05T01:15:05.389Z,54.00
2019-04-05T01:17:34.546Z,53.80
2019-04-05T01:20:04.335Z,53.60
2019-04-05T01:22:33.675Z,53.70
2019-04-05T01:25:03.311Z,54.00
2019-04-05T01:27:32.489Z,53.90
2019-04-05T01:30:01.631Z,53.70
2019-04-05T01:32:30.801Z,53.60
2019-04-05T01:34:59.969Z,54.00
2019-04-05T01:37:29.120Z,53.40
2019-04-05T01:39:58.293Z,53.50
2019-04-05T01:42:27.492Z,53.80
2019-04-05T01:44:56.658Z,53.80
2019-04-05T01:47:25.821Z,53.70
2019-04-05T01:49:55.052Z,53.90
2019-04-05T01:52:24.204Z,53.70
2019-04-05T01:54:53.412Z,53.50
2019-04-05T01:57:22.571Z,53.80
2019-04-05T01:59:51.716Z,53.50
2019-04-05T02:02:20.866Z,53.80
2019-04-05T02:04:52.683Z,53.40
2019-04-05T02:07:20.911Z,53.80
2019-04-05T02:09:50.624Z,53.40
2019-04-05T02:12:19.763Z,53.80
2019-04-05T02:14:48.937Z,53.60
2019-04-05T02:17:18.119Z,53.20
2019-04-05T02:19:47.281Z,53.60
2019-04-05T02:22:16.419Z,53.40
2019-04-05T02:24:45.564Z,53.20
2019-04-05T02:27:14.741Z,53.50
2019-04-05T02:29:43.910Z,53.30
2019-04-05T02:32:13.126Z,53.70
2019-04-05T02:34:42.282Z,53.50
2019-04-05T02:37:11.453Z,53.30
2019-04-05T02:39:40.613Z,53.20
2019-04-05T02:42:09.945Z,53.40
2019-04-05T02:44:40.002Z,53.40
2019-04-05T02:47:09.160Z,53.20
2019-04-05T02:49:38.305Z,54.10
2019-04-05T02:52:07.444Z,53.20
2019-04-05T02:54:36.660Z,53.50
2019-04-05T02:57:05.833Z,53.30
2019-04-05T02:59:34.970Z,53.10
2019-04-05T03:02:04.760Z,53.30
2019-04-05T03:04:33.918Z,53.10
2019-04-05T03:07:03.060Z,53.00
2019-04-05T03:09:32.267Z,53.10
2019-04-05T03:12:01.430Z,53.00
2019-04-05T03:14:30.592Z,53.30
2019-04-05T03:16:59.761Z,53.00
2019-04-05T03:19:31.354Z,53.10
2019-04-05T03:22:03.704Z,53.80
2019-04-05T03:24:33.317Z,53.10
2019-04-05T03:27:07.335Z,52.80
2019-04-05T03:29:36.822Z,53.10
2019-04-05T03:32:05.982Z,52.80
2019-04-05T03:34:36.084Z,53.10
2019-04-05T03:37:05.214Z,53.20
2019-04-05T03:39:34.387Z,52.80
2019-04-05T03:42:03.569Z,52.90
2019-04-05T03:44:32.729Z,53.00
2019-04-05T03:47:01.890Z,52.80
2019-04-05T03:49:31.233Z,52.60
2019-04-05T03:52:00.398Z,52.80
2019-04-05T03:54:29.922Z,52.90
2019-04-05T03:56:59.744Z,52.90
2019-04-05T03:59:29.078Z,53.10
2019-04-05T04:01:58.234Z,53.00
2019-04-05T04:04:27.476Z,52.60
2019-04-05T04:06:57.255Z,52.90
2019-04-05T04:09:26.418Z,52.80
2019-04-05T04:11:55.579Z,52.80
2019-04-05T04:14:24.749Z,53.60
2019-04-05T04:16:54.061Z,53.10
2019-04-05T04:19:23.439Z,52.90
2019-04-05T04:22:13.752Z,52.90
2019-04-05T04:24:42.921Z,53.00
2019-04-05T04:27:12.084Z,52.90
2019-04-05T04:29:41.662Z,53.20
2019-04-05T04:32:10.799Z,52.60
2019-04-05T04:34:39.938Z,53.00
2019-04-05T04:37:09.108Z,52.90
2019-04-05T04:39:38.351Z,52.70
2019-04-05T04:42:07.484Z,53.00
2019-04-05T04:44:36.663Z,52.60
2019-04-05T04:47:05.819Z,52.60
2019-04-05T04:49:34.953Z,52.70
2019-04-05T04:52:04.122Z,52.80
2019-04-05T04:54:33.263Z,52.80
2019-04-05T04:57:02.433Z,52.70
2019-04-05T04:59:31.569Z,52.60
2019-04-05T05:02:00.865Z,52.60
2019-04-05T05:04:30.138Z,52.50
2019-04-05T05:06:59.297Z,52.70
2019-04-05T05:09:28.503Z,52.40
2019-04-05T05:11:57.702Z,52.10
2019-04-05T05:14:27.068Z,52.30
2019-04-05T05:16:56.491Z,52.30
2019-04-05T05:19:25.650Z,52.50
2019-04-05T05:21:54.793Z,52.40
2019-04-05T05:24:24.096Z,52.40
2019-04-05T05:26:53.575Z,52.10
2019-04-05T05:29:22.741Z,52.90
2019-04-05T05:31:51.940Z,53.00
2019-04-05T05:34:21.268Z,54.30
2019-04-05T05:36:50.407Z,59.80
2019-04-05T05:39:19.628Z,51.20
2019-04-05T05:41:48.979Z,46.60
2019-04-05T05:44:18.146Z,43.90
2019-04-05T05:46:47.391Z,43.80
2019-04-05T05:49:22.213Z,42.40
2019-04-05T05:51:51.426Z,42.20
2019-04-05T05:54:20.546Z,41.10
2019-04-05T05:56:49.815Z,39.20
2019-04-05T05:59:19.886Z,47.90
2019-04-05T06:01:49.022Z,48.30
2019-04-05T06:04:18.220Z,49.20
2019-04-05T06:06:47.626Z,51.00
2019-04-05T06:09:16.761Z,51.70
2019-04-05T06:11:45.975Z,52.60
2019-04-05T06:14:15.120Z,52.80
2019-04-05T06:16:46.621Z,52.80
2019-04-05T06:19:15.152Z,52.90
2019-04-05T06:21:44.300Z,53.20
2019-04-05T06:24:13.628Z,52.80
2019-04-05T06:26:42.793Z,53.10
2019-04-05T06:29:11.933Z,53.90
2019-04-05T06:31:41.147Z,53.90
2019-04-05T06:34:10.297Z,53.70
2019-04-05T06:36:39.528Z,53.50
2019-04-05T06:39:09.159Z,53.50
2019-04-05T06:41:38.308Z,54.40
2019-04-05T06:44:07.463Z,53.80
2019-04-05T06:46:36.627Z,53.90
2019-04-05T06:49:05.802Z,53.90
2019-04-05T06:51:34.980Z,53.40
2019-04-05T06:54:04.121Z,52.90
2019-04-05T06:56:33.305Z,53.90
2019-04-05T06:59:02.916Z,53.50
2019-04-05T07:01:32.168Z,53.90
2019-04-05T07:04:01.431Z,53.70
2019-04-05T07:06:30.591Z,53.20
2019-04-05T07:08:59.756Z,53.30
2019-04-05T07:11:28.966Z,53.30
2019-04-05T07:13:58.107Z,53.30
2019-04-05T07:16:27.252Z,52.90
2019-04-05T07:18:56.433Z,53.00
2019-04-05T07:21:25.578Z,53.30
2019-04-05T07:23:54.723Z,53.00
2019-04-05T07:26:23.933Z,53.60
2019-04-05T07:28:53.078Z,53.30
2019-04-05T07:31:22.247Z,53.00
2019-04-05T07:33:51.422Z,52.90
2019-04-05T07:36:20.568Z,53.10
2019-04-05T07:38:49.785Z,52.70
2019-04-05T07:41:19.186Z,52.40
2019-04-05T07:43:48.329Z,54.00
2019-04-05T07:46:17.512Z,52.50
2019-04-05T07:48:46.684Z,52.80
2019-04-05T07:51:15.855Z,52.20
2019-04-05T07:53:45.002Z,52.80
2019-04-05T07:56:14.173Z,52.60
2019-04-05T07:58:43.347Z,53.10
2019-04-05T08:01:12.515Z,53.00
2019-04-05T08:03:41.661Z,52.70
2019-04-05T08:06:11.326Z,52.40
2019-04-05T08:08:51.392Z,52.80
2019-04-05T08:11:20.577Z,53.00
2019-04-05T08:13:49.718Z,53.30
2019-04-05T08:16:18.883Z,52.20
2019-04-05T08:18:57.579Z,52.60
2019-04-05T08:21:18.921Z,53.20
2019-04-05T08:23:48.102Z,53.20
2019-04-05T08:26:17.271Z,53.00
2019-04-05T08:28:46.413Z,53.50
2019-04-05T08:31:15.572Z,53.30
2019-04-05T08:33:44.736Z,52.80
2019-04-05T08:36:13.907Z,53.40
2019-04-05T08:38:43.096Z,53.30
2019-04-05T08:41:12.491Z,53.70
2019-04-05T08:43:41.685Z,53.70
2019-04-05T08:46:10.995Z,53.40
2019-04-05T08:48:40.201Z,53.70
2019-04-05T08:51:09.378Z,53.70
2019-04-05T08:53:38.534Z,53.70
2019-04-05T08:56:07.677Z,53.60
2019-04-05T08:58:36.827Z,53.30
2019-04-05T09:01:05.958Z,53.90
2019-04-05T09:03:35.132Z,53.60
2019-04-05T09:06:04.370Z,53.50
2019-04-05T09:08:33.519Z,53.40
2019-04-05T09:11:02.733Z,53.90
2019-04-05T09:13:31.875Z,53.70
2019-04-05T09:16:01.023Z,53.70
2019-04-05T09:18:30.166Z,53.50
2019-04-05T09:20:59.339Z,54.00
2019-04-05T09:23:28.506Z,53.70
2019-04-05T09:25:57.702Z,53.40
2019-04-05T09:28:26.859Z,53.70
2019-04-05T09:30:55.993Z,53.20
2019-04-05T09:33:25.658Z,53.80
2019-04-05T09:35:54.825Z,53.70
2019-04-05T09:38:24.014Z,54.00
2019-04-05T09:40:53.210Z,53.60
2019-04-05T09:43:22.375Z,54.10
2019-04-05T09:45:51.721Z,54.30
2019-04-05T09:48:20.900Z,53.50
2019-04-05T09:50:50.138Z,54.00
2019-04-05T09:53:19.277Z,54.00
2019-04-05T09:55:48.417Z,54.40
2019-04-05T09:58:17.586Z,53.20
2019-04-05T10:00:46.733Z,54.00
2019-04-05T10:03:15.978Z,54.10
2019-04-05T10:05:45.111Z,54.40
2019-04-05T10:08:14.329Z,54.10
2019-04-05T10:10:43.500Z,53.90
2019-04-05T10:13:12.790Z,53.80
2019-04-05T10:15:42.033Z,53.30
2019-04-05T10:18:11.376Z,52.80
2019-04-05T10:20:40.562Z,53.00
2019-04-05T10:23:09.722Z,53.40
2019-04-05T10:25:38.936Z,54.10
2019-04-05T10:28:08.088Z,54.10
2019-04-05T10:30:37.305Z,53.60
2019-04-05T10:33:06.437Z,53.30
2019-04-05T10:35:35.572Z,52.90
2019-04-05T10:38:05.315Z,51.70
2019-04-05T10:40:34.453Z,52.10
2019-04-05T10:43:03.629Z,51.70
2019-04-05T10:45:32.793Z,52.70
2019-04-05T10:48:01.945Z,52.60
2019-04-05T10:50:31.152Z,52.40
2019-04-05T10:53:00.302Z,52.20
2019-04-05T10:55:29.440Z,51.70
2019-04-05T10:57:58.611Z,51.70
2019-04-05T11:00:28.778Z,51.70
2019-04-05T11:02:57.942Z,51.20
2019-04-05T11:05:27.088Z,49.70
2019-04-05T11:07:56.548Z,48.00
2019-04-05T11:10:25.757Z,48.90
2019-04-05T11:12:54.953Z,47.40
2019-04-05T11:15:24.096Z,48.20
2019-04-05T11:17:53.236Z,48.80
2019-04-05T11:20:22.670Z,47.10
2019-04-05T11:22:51.970Z,47.10
2019-04-05T11:25:21.285Z,46.60
2019-04-05T11:27:50.574Z,46.00
2019-04-05T11:30:42.149Z,46.80
2019-04-05T11:33:11.324Z,46.50
2019-04-05T11:35:40.506Z,45.20
2019-04-05T11:38:10.077Z,45.50
2019-04-05T11:40:39.220Z,46.10
2019-04-05T11:43:08.384Z,45.90
2019-04-05T11:45:37.551Z,45.30
2019-04-05T11:48:06.744Z,45.20
2019-04-05T11:50:35.913Z,45.00
2019-04-05T11:53:05.056Z,45.50
2019-04-05T11:55:34.494Z,45.60
2019-04-05T11:58:03.635Z,45.10
2019-04-05T12:00:39.972Z,45.80
2019-04-05T12:03:10.886Z,45.90
2019-04-05T12:05:40.223Z,44.70
2019-04-05T12:08:09.429Z,44.90
2019-04-05T12:10:39.163Z,45.10
2019-04-05T12:13:08.335Z,44.40
2019-04-05T12:15:37.498Z,45.10
2019-04-05T12:18:06.685Z,45.70
2019-04-05T12:20:47.891Z,45.40
2019-04-05T12:23:06.723Z,46.00
2019-04-05T12:25:35.885Z,45.90
2019-04-05T12:28:08.907Z,45.60
2019-04-05T12:30:38.537Z,45.70
2019-04-05T12:33:14.162Z,46.00
2019-04-05T12:35:38.666Z,46.00
2019-04-05T12:38:07.846Z,46.20
2019-04-05T12:40:40.303Z,46.00
2019-04-05T12:43:07.892Z,45.30
2019-04-05T12:45:37.325Z,45.20
2019-04-05T12:48:06.465Z,45.40
2019-04-05T12:50:35.613Z,45.20
2019-04-05T12:53:04.819Z,44.80
2019-04-05T12:55:33.966Z,45.20
2019-04-05T12:58:03.133Z,45.60
2019-04-05T13:00:32.269Z,46.00
2019-04-05T13:03:01.421Z,46.10
2019-04-05T13:05:30.715Z,46.30
2019-04-05T13:07:59.891Z,46.70
2019-04-05T13:10:30.587Z,46.90
2019-04-05T13:12:59.923Z,47.40
2019-04-05T13:15:29.065Z,47.10
2019-04-05T13:18:00.408Z,47.50
2019-04-05T13:20:30.454Z,47.80
2019-04-05T13:23:02.529Z,48.00
2019-04-05T13:25:31.220Z,47.70
2019-04-05T13:28:12.462Z,47.90
2019-04-05T13:30:31.261Z,48.50
2019-04-05T13:33:00.397Z,49.10
2019-04-05T13:35:29.799Z,47.70
2019-04-05T13:38:00.699Z,47.50
2019-04-05T13:40:30.210Z,47.00
2019-04-05T13:43:02.057Z,47.10
2019-04-05T13:45:30.378Z,46.20
2019-04-05T13:47:59.548Z,47.30
2019-04-05T13:50:28.750Z,47.00
2019-04-05T13:52:57.931Z,46.60
2019-04-05T13:55:27.082Z,46.40
2019-04-05T13:57:56.240Z,46.00
2019-04-05T14:00:25.455Z,45.80
2019-04-05T14:02:54.738Z,46.20
2019-04-05T14:05:24.019Z,46.60
2019-04-05T14:08:09.180Z,45.40
2019-04-05T14:10:24.055Z,45.40
2019-04-05T14:12:53.187Z,45.60
2019-04-05T14:15:22.379Z,45.10
2019-04-05T14:17:51.537Z,45.30
2019-04-05T14:20:20.714Z,45.10
2019-04-05T14:22:51.537Z,45.60
2019-04-05T14:25:20.915Z,45.40
2019-04-05T14:27:50.083Z,45.50
2019-04-05T14:30:19.437Z,45.30
2019-04-05T14:32:51.466Z,45.10
2019-04-05T14:35:19.661Z,45.40
2019-04-05T14:37:49.358Z,44.90
2019-04-05T14:40:18.519Z,45.20
2019-04-05T14:42:47.666Z,44.80
2019-04-05T14:45:16.835Z,44.80
2019-04-05T14:47:46.077Z,45.40
2019-04-05T14:50:16.134Z,44.10
2019-04-05T14:52:45.787Z,44.40
2019-04-05T14:55:15.504Z,44.80
2019-04-05T14:57:44.672Z,44.40
2019-04-05T15:00:15.791Z,43.90
2019-04-05T15:02:45.002Z,44.10
2019-04-05T15:05:14.232Z,44.10
2019-04-05T15:07:43.430Z,43.50
2019-04-05T15:10:12.569Z,43.50
2019-04-05T15:12:41.734Z,44.00
2019-04-05T15:15:10.956Z,43.50
2019-04-05T15:17:47.991Z,43.50
2019-04-05T15:20:11.671Z,43.50
2019-04-05T15:22:42.223Z,43.50
2019-04-05T15:25:11.825Z,43.40
2019-04-05T15:27:41.121Z,43.50
2019-04-05T15:30:10.299Z,43.50
2019-04-05T15:32:39.790Z,43.40
2019-04-05T15:35:09.009Z,43.50
2019-04-05T15:37:38.177Z,43.50
2019-04-05T15:40:08.984Z,43.40
2019-04-05T15:42:38.143Z,43.40
2019-04-05T15:45:09.980Z,44.10
2019-04-05T15:47:39.253Z,43.40
2019-04-05T15:50:08.509Z,42.80
2019-04-05T15:52:37.647Z,43.40
2019-04-05T15:55:07.791Z,43.40
2019-04-05T15:57:39.320Z,43.40
2019-04-05T16:00:10.756Z,43.40
2019-04-05T16:02:42.848Z,43.40
2019-04-05T16:05:10.785Z,43.40
2019-04-05T16:07:40.001Z,43.30
2019-04-05T16:10:11.962Z,43.40
2019-04-05T16:12:41.127Z,44.30
2019-04-05T16:15:10.761Z,44.70
2019-04-05T16:17:39.921Z,45.10
2019-04-05T16:20:10.213Z,45.10
2019-04-05T16:22:39.380Z,45.10
2019-04-05T16:25:10.181Z,45.20
2019-04-05T16:27:39.398Z,45.80
2019-04-05T16:30:08.634Z,45.80
2019-04-05T16:32:37.793Z,45.30
2019-04-05T16:35:07.910Z,45.80
2019-04-05T16:37:37.116Z,44.60
2019-04-05T16:40:09.932Z,46.10
2019-04-05T16:42:39.096Z,46.20
2019-04-05T16:45:09.669Z,46.10
2019-04-05T16:47:38.812Z,46.60
2019-04-05T16:50:08.296Z,45.90
2019-04-05T16:52:44.761Z,46.50
2019-04-05T16:55:08.368Z,45.70
2019-04-05T16:57:37.496Z,45.30
2019-04-05T17:00:09.351Z,46.10
2019-04-05T17:02:38.513Z,45.60
2019-04-05T17:05:07.726Z,45.70
2019-04-05T17:07:37.008Z,45.60
2019-04-05T17:10:06.748Z,45.40
2019-04-05T17:12:35.890Z,45.80
2019-04-05T17:15:07.547Z,45.50
2019-04-05T17:17:36.722Z,45.80
2019-04-05T17:20:08.780Z,45.60
2019-04-05T17:22:37.962Z,45.80
2019-04-05T17:25:09.304Z,45.30
2019-04-05T17:27:38.520Z,45.70
2019-04-05T17:30:07.750Z,45.50
2019-04-05T17:32:36.894Z,45.50
2019-04-05T17:35:07.355Z,45.50
2019-04-05T17:37:36.502Z,45.30
2019-04-05T17:40:08.144Z,45.30
2019-04-05T17:42:37.289Z,45.20
2019-04-05T17:45:08.871Z,45.30
2019-04-05T17:47:38.019Z,44.90
2019-04-05T17:50:10.574Z,45.10
2019-04-05T17:52:39.431Z,44.70
2019-04-05T17:55:08.567Z,45.10
2019-04-05T17:57:37.741Z,44.80
2019-04-05T18:00:11.518Z,44.30
2019-04-05T18:02:40.687Z,38.60
2019-04-05T18:05:10.440Z,38.70
2019-04-05T18:07:39.607Z,43.00
2019-04-05T18:10:08.763Z,45.70
2019-04-05T18:12:37.967Z,45.70
2019-04-05T18:15:07.140Z,46.00
2019-04-05T18:17:36.426Z,45.30
2019-04-05T18:20:09.781Z,45.20
2019-04-05T18:22:38.552Z,45.80
2019-04-05T18:25:07.723Z,45.40
2019-04-05T18:27:37.286Z,45.20
2019-04-05T18:30:07.788Z,45.70
2019-04-05T18:32:36.939Z,45.60
2019-04-05T18:35:06.875Z,46.10
2019-04-05T18:37:36.049Z,45.60
2019-04-05T18:40:07.601Z,45.40
2019-04-05T18:42:36.761Z,45.30
2019-04-05T18:45:07.775Z,45.30
2019-04-05T18:47:36.971Z,45.60
2019-04-05T18:50:07.584Z,45.30
2019-04-05T18:52:36.731Z,45.10
2019-04-05T18:55:08.559Z,44.90
2019-04-05T18:57:37.705Z,44.80
2019-04-05T19:00:08.087Z,44.60
2019-04-05T19:02:37.295Z,44.50
2019-04-05T19:05:07.031Z,44.40
2019-04-05T19:07:36.173Z,45.30
2019-04-05T19:10:07.821Z,45.00
2019-04-05T19:12:37.073Z,45.00
2019-04-05T19:15:07.939Z,45.00
2019-04-05T19:17:37.119Z,46.20
2019-04-05T19:20:07.436Z,46.30
2019-04-05T19:22:36.585Z,46.30
2019-04-05T19:25:08.658Z,47.10
2019-04-05T19:27:37.875Z,46.00
2019-04-05T19:50:15.265Z,45.80
2019-04-05T19:52:44.435Z,45.30
2019-04-05T19:55:13.585Z,45.70
2019-04-05T19:57:42.765Z,45.50
2019-04-05T20:00:25.435Z,45.30
2019-04-05T20:02:57.866Z,45.00
2019-04-05T20:05:29.283Z,45.10
2019-04-05T20:07:58.581Z,44.90
2019-04-05T20:10:27.759Z,44.80
2019-04-05T20:12:56.931Z,45.10
2019-04-05T20:15:26.093Z,44.90
2019-04-05T20:17:55.297Z,44.90
2019-04-05T20:20:24.459Z,44.90
2019-04-05T20:22:53.636Z,44.80
2019-04-05T20:25:22.817Z,44.90
2019-04-05T20:27:51.986Z,45.30
2019-04-05T20:30:21.163Z,45.00
2019-04-05T20:32:50.370Z,45.20
2019-04-05T20:35:19.619Z,44.90
2019-04-05T20:37:48.794Z,44.70
2019-04-05T20:40:17.952Z,44.50
2019-04-05T20:42:47.167Z,45.30
2019-04-05T20:45:16.332Z,45.10
2019-04-05T20:47:45.471Z,45.30
2019-04-05T20:50:14.637Z,45.40
2019-04-05T20:52:43.808Z,45.40
2019-04-05T20:55:12.961Z,45.70
2019-04-05T20:57:42.110Z,45.90
2019-04-05T21:00:13.230Z,46.10
2019-04-05T21:02:42.407Z,46.10
2019-04-05T21:05:11.546Z,47.10
2019-04-05T21:07:40.725Z,46.90
2019-04-05T21:10:09.894Z,46.80
2019-04-05T21:12:39.042Z,46.50
2019-04-05T21:15:08.206Z,46.70
2019-04-05T21:17:37.529Z,46.60
2019-04-05T21:20:06.960Z,46.60
2019-04-05T21:22:36.108Z,46.70
2019-04-05T21:25:07.460Z,47.40
2019-04-05T21:27:36.669Z,46.60
2019-04-05T21:30:07.818Z,46.80
2019-04-05T21:32:36.992Z,46.90
2019-04-05T21:35:07.464Z,46.70
2019-04-05T21:37:36.631Z,46.90
2019-04-05T21:40:07.515Z,46.80
2019-04-05T21:42:36.669Z,47.00
2019-04-05T21:45:07.464Z,47.00
2019-04-05T21:47:36.671Z,47.00
2019-04-05T21:50:07.809Z,47.30
2019-04-05T21:52:36.952Z,46.90
2019-04-05T21:55:07.668Z,47.20
2019-04-05T21:57:36.811Z,47.40
2019-04-05T22:00:16.240Z,47.20
2019-04-05T22:02:45.655Z,48.30
2019-04-05T22:05:14.795Z,47.50
2019-04-05T22:07:43.967Z,47.50
2019-04-05T22:10:13.103Z,47.30
2019-04-05T22:12:42.251Z,47.40
2019-04-05T22:15:13.094Z,47.30
2019-04-05T22:17:42.280Z,47.50
2019-04-05T22:20:11.488Z,47.40
2019-04-05T22:22:40.628Z,47.70
2019-04-05T22:25:10.322Z,47.60
2019-04-05T22:27:39.496Z,47.80
2019-04-05T22:30:08.839Z,47.60
2019-04-05T22:32:37.967Z,47.50
2019-04-05T22:35:07.150Z,47.60
2019-04-05T22:37:36.443Z,47.60
2019-04-05T22:40:07.622Z,47.80
2019-04-05T22:42:36.773Z,48.00
2019-04-05T22:45:07.383Z,47.90
2019-04-05T22:47:36.996Z,47.90
2019-04-05T22:50:09.082Z,47.70
2019-04-05T22:52:38.218Z,48.10
2019-04-05T22:55:11.450Z,48.00
2019-04-05T22:57:38.247Z,47.90
2019-04-05T23:00:08.085Z,47.90
2019-04-05T23:02:37.229Z,48.00
2019-04-05T23:05:07.543Z,47.80
2019-04-05T23:07:36.679Z,48.00
2019-04-05T23:10:09.217Z,48.20
2019-04-05T23:12:38.385Z,48.00
2019-04-05T23:15:08.873Z,48.20
2019-04-05T23:17:38.011Z,48.20
2019-04-05T23:20:08.072Z,48.30
2019-04-05T23:22:37.265Z,48.10
2019-04-05T23:25:09.315Z,48.00
2019-04-05T23:27:38.462Z,48.90
2019-04-05T23:30:07.806Z,48.00
2019-04-05T23:32:36.936Z,48.20
2019-04-05T23:35:07.815Z,48.00
2019-04-05T23:37:36.959Z,48.40
2019-04-05T23:40:07.063Z,47.90
2019-04-05T23:42:36.214Z,48.20
2019-04-05T23:45:07.061Z,48.40
2019-04-05T23:47:36.209Z,48.30
2019-04-05T23:50:06.181Z,48.10
2019-04-05T23:52:35.273Z,48.10
2019-04-05T23:55:05.967Z,48.40
2019-04-05T23:57:35.108Z,48.30
